Time,TemperatureF,DewpointF,PressureIn,WindDirection,WindDirectionDegrees,WindSpeedMPH,WindSpeedGustMPH,Humidity,HourlyPrecipIn,Conditions,Clouds,dailyrainin,SolarRadiationWatts/m^2,SoftwareType,DateUTC
2013-04-28 00:03:00,34.0,-99.9,-100.00,East,83,0.0,3.0,78,0.00,,,0.00,0.000000,,2013-04-28 04:03:00,
2013-04-28 00:10:00,31.0,26.0,-100.00,East,81,1.0,2.0,81,0.00,,,0.00,0.000000,,2013-04-28 04:10:00,
2013-04-28 00:32:00,31.0,26.0,-100.00,East,81,1.0,2.0,81,0.00,,,0.00,0.000000,,2013-04-28 04:32:00,
2013-04-28 00:43:00,31.0,26.0,-100.00,East,81,1.0,2.0,81,0.00,,,0.00,0.000000,,2013-04-28 04:43:00,
2013-04-28 00:53:00,31.0,26.0,-100.00,East,81,1.0,2.0,81,0.00,,,0.00,0.000000,,2013-04-28 04:53:00,
2013-04-28 01:02:00,31.0,26.0,-100.00,East,81,1.0,2.0,81,0.00,,,0.00,0.000000,,2013-04-28 05:02:00,
2013-04-28 01:10:00,30.0,26.0,-100.00,ENE,68,0.0,3.0,84,0.00,,,0.00,0.000000,,2013-04-28 05:10:00,
2013-04-28 01:32:00,30.0,26.0,-100.00,ENE,68,0.0,3.0,84,0.00,,,0.00,0.000000,,2013-04-28 05:32:00,
2013-04-28 01:42:00,30.0,26.0,-100.00,ENE,68,0.0,3.0,84,0.00,,,0.00,0.000000,,2013-04-28 05:42:00,
2013-04-28 01:52:00,30.0,26.0,-100.00,ENE,68,0.0,3.0,84,0.00,,,0.00,0.000000,,2013-04-28 05:52:00,
2013-04-28 02:01:00,30.0,26.0,-100.00,ENE,68,0.0,3.0,84,0.00,,,0.00,0.000000,,2013-04-28 06:01:00,
2013-04-28 02:10:00,29.0,25.0,-100.00,East,101,0.0,1.0,86,0.00,,,-99.99,0.000000,,2013-04-28 06:10:00,
2013-04-28 02:32:00,29.0,25.0,-100.00,East,101,0.0,1.0,86,0.00,,,-99.99,0.000000,,2013-04-28 06:32:00,
2013-04-28 02:42:00,29.0,25.0,-100.00,East,101,0.0,1.0,86,0.00,,,-99.99,0.000000,,2013-04-28 06:42:00,
2013-04-28 02:52:00,29.0,25.0,-100.00,East,101,0.0,1.0,86,0.00,,,-99.99,0.000000,,2013-04-28 06:52:00,
2013-04-28 03:02:00,29.0,25.0,-100.00,East,101,0.0,1.0,86,0.00,,,-99.99,0.000000,,2013-04-28 07:02:00,
2013-04-28 03:10:00,28.0,25.0,-100.00,East,89,0.0,1.0,87,0.00,,,0.00,0.000000,,2013-04-28 07:10:00,
2013-04-28 03:42:00,28.0,25.0,-100.00,East,89,0.0,1.0,87,0.00,,,0.00,0.000000,,2013-04-28 07:42:00,
2013-04-28 03:52:00,28.0,25.0,-100.00,East,89,0.0,1.0,87,0.00,,,0.00,0.000000,,2013-04-28 07:52:00,
2013-04-28 04:02:00,28.0,25.0,-100.00,East,89,0.0,1.0,87,0.00,,,0.00,0.000000,,2013-04-28 08:02:00,
2013-04-28 04:10:00,28.0,25.0,-100.00,ESE,109,1.0,2.0,89,0.00,,,0.00,0.000000,,2013-04-28 08:10:00,
2013-04-28 04:32:00,28.0,25.0,-100.00,ESE,109,1.0,2.0,89,0.00,,,0.00,0.000000,,2013-04-28 08:32:00,
2013-04-28 04:42:00,28.0,25.0,-100.00,ESE,109,1.0,2.0,89,0.00,,,0.00,0.000000,,2013-04-28 08:42:00,
2013-04-28 04:52:00,28.0,25.0,-100.00,ESE,109,1.0,2.0,89,0.00,,,0.00,0.000000,,2013-04-28 08:52:00,
2013-04-28 05:01:00,28.0,25.0,-100.00,ESE,109,1.0,2.0,89,0.00,,,0.00,0.000000,,2013-04-28 09:01:00,
2013-04-28 05:10:00,27.0,24.0,-100.00,ENE,76,1.0,2.0,90,0.00,,,0.00,0.000000,,2013-04-28 09:10:00,
2013-04-28 05:33:00,27.0,24.0,-100.00,ENE,76,1.0,2.0,90,0.00,,,0.00,0.000000,,2013-04-28 09:33:00,
2013-04-28 05:42:00,27.0,24.0,-100.00,ENE,76,1.0,2.0,90,0.00,,,0.00,0.000000,,2013-04-28 09:42:00,
2013-04-28 05:53:00,27.0,24.0,-100.00,ENE,76,1.0,2.0,90,0.00,,,0.00,0.000000,,2013-04-28 09:53:00,
2013-04-28 06:03:00,27.0,24.0,-100.00,ENE,76,1.0,2.0,90,0.00,,,0.00,0.000000,,2013-04-28 10:03:00,
2013-04-28 06:10:00,26.0,23.0,-100.00,East,85,1.0,2.0,90,0.00,,,0.00,3.000000,,2013-04-28 10:10:00,
2013-04-28 06:32:00,26.0,23.0,-100.00,East,85,1.0,2.0,90,0.00,,,0.00,3.000000,,2013-04-28 10:32:00,
2013-04-28 06:42:00,26.0,23.0,-100.00,East,85,1.0,2.0,90,0.00,,,0.00,3.000000,,2013-04-28 10:42:00,
2013-04-28 06:53:00,26.0,23.0,-100.00,East,85,1.0,2.0,90,0.00,,,0.00,3.000000,,2013-04-28 10:53:00,
2013-04-28 07:02:00,26.0,23.0,-100.00,East,85,1.0,2.0,90,0.00,,,0.00,3.000000,,2013-04-28 11:02:00,
2013-04-28 07:10:00,28.0,25.0,-100.00,East,97,0.0,2.0,90,0.00,,,0.00,20.000000,,2013-04-28 11:10:00,
2013-04-28 07:32:00,28.0,25.0,-100.00,East,97,0.0,2.0,90,0.00,,,0.00,20.000000,,2013-04-28 11:32:00,
2013-04-28 07:42:00,28.0,25.0,-100.00,East,97,0.0,2.0,90,0.00,,,0.00,20.000000,,2013-04-28 11:42:00,
2013-04-28 07:52:00,28.0,25.0,-100.00,East,97,0.0,2.0,90,0.00,,,0.00,20.000000,,2013-04-28 11:52:00,
2013-04-28 08:02:00,28.0,25.0,-100.00,East,97,0.0,2.0,90,0.00,,,0.00,20.000000,,2013-04-28 12:02:00,
2013-04-28 08:10:00,40.0,37.0,-100.00,NNE,27,0.0,2.0,89,0.00,,,0.00,56.000000,,2013-04-28 12:10:00,
2013-04-28 08:42:00,40.0,37.0,-100.00,NNE,27,0.0,2.0,89,0.00,,,0.00,56.000000,,2013-04-28 12:42:00,
2013-04-28 08:52:00,40.0,37.0,-100.00,NNE,27,0.0,2.0,89,0.00,,,0.00,56.000000,,2013-04-28 12:52:00,
2013-04-28 09:02:00,40.0,37.0,-100.00,NNE,27,0.0,2.0,89,0.00,,,0.00,56.000000,,2013-04-28 13:02:00,
2013-04-28 09:10:00,52.0,37.0,-100.00,WSW,258,1.0,3.0,57,0.00,,,0.00,310.000000,,2013-04-28 13:10:00,
2013-04-28 09:32:00,52.0,37.0,-100.00,WSW,258,1.0,3.0,57,0.00,,,0.00,310.000000,,2013-04-28 13:32:00,
2013-04-28 09:42:00,52.0,37.0,-100.00,WSW,258,1.0,3.0,57,0.00,,,0.00,310.000000,,2013-04-28 13:42:00,
2013-04-28 09:52:00,52.0,37.0,-100.00,WSW,258,1.0,3.0,57,0.00,,,0.00,310.000000,,2013-04-28 13:52:00,
2013-04-28 10:02:00,52.0,37.0,-100.00,WSW,258,1.0,3.0,57,0.00,,,0.00,310.000000,,2013-04-28 14:02:00,
2013-04-28 10:10:00,58.0,33.0,-100.00,West,269,3.0,5.0,39,0.00,,,0.00,566.000000,,2013-04-28 14:10:00,
2013-04-28 10:32:00,58.0,33.0,-100.00,West,269,3.0,5.0,39,0.00,,,0.00,566.000000,,2013-04-28 14:32:00,
2013-04-28 10:42:00,58.0,33.0,-100.00,West,269,3.0,5.0,39,0.00,,,0.00,566.000000,,2013-04-28 14:42:00,
2013-04-28 10:52:00,58.0,33.0,-100.00,West,269,3.0,5.0,39,0.00,,,0.00,566.000000,,2013-04-28 14:52:00,
2013-04-28 11:02:00,58.0,33.0,-100.00,West,269,3.0,5.0,39,0.00,,,0.00,566.000000,,2013-04-28 15:02:00,
2013-04-28 11:10:00,64.0,29.0,-100.00,WSW,254,3.0,8.0,27,0.00,,,0.00,702.000000,,2013-04-28 15:10:00,
2013-04-28 11:33:00,64.0,29.0,-100.00,WSW,254,3.0,8.0,27,0.00,,,0.00,702.000000,,2013-04-28 15:33:00,
2013-04-28 11:43:00,64.0,29.0,-100.00,WSW,254,3.0,8.0,27,0.00,,,0.00,702.000000,,2013-04-28 15:43:00,
2013-04-28 11:53:00,64.0,29.0,-100.00,WSW,254,3.0,8.0,27,0.00,,,0.00,702.000000,,2013-04-28 15:53:00,
2013-04-28 12:03:00,64.0,29.0,-100.00,WSW,254,3.0,8.0,27,0.00,,,0.00,702.000000,,2013-04-28 16:03:00,
2013-04-28 12:10:00,68.0,29.0,-100.00,WNW,287,4.0,11.0,23,0.00,,,0.00,782.000000,,2013-04-28 16:10:00,
2013-04-28 12:43:00,68.0,29.0,-100.00,WNW,287,4.0,11.0,23,0.00,,,0.00,782.000000,,2013-04-28 16:43:00,
2013-04-28 12:52:00,68.0,29.0,-100.00,WNW,287,4.0,11.0,23,0.00,,,0.00,782.000000,,2013-04-28 16:52:00,
2013-04-28 13:02:00,68.0,29.0,-100.00,WNW,287,4.0,11.0,23,0.00,,,0.00,782.000000,,2013-04-28 17:02:00,
2013-04-28 13:10:00,69.0,29.0,-100.00,SW,216,3.0,8.0,22,0.00,,,0.00,799.000000,,2013-04-28 17:10:00,
2013-04-28 13:32:00,69.0,29.0,-100.00,SW,216,3.0,8.0,22,0.00,,,0.00,799.000000,,2013-04-28 17:32:00,
2013-04-28 13:43:00,69.0,29.0,-100.00,SW,216,3.0,8.0,22,0.00,,,0.00,799.000000,,2013-04-28 17:43:00,
2013-04-28 13:52:00,69.0,29.0,-100.00,SW,216,3.0,8.0,22,0.00,,,0.00,799.000000,,2013-04-28 17:52:00,
2013-04-28 14:02:00,69.0,29.0,-100.00,SW,216,3.0,8.0,22,0.00,,,0.00,799.000000,,2013-04-28 18:02:00,
2013-04-28 14:10:00,71.0,30.0,-100.00,WSW,239,3.0,7.0,22,0.00,,,0.00,771.000000,,2013-04-28 18:10:00,
2013-04-28 14:42:00,71.0,30.0,-100.00,WSW,239,3.0,7.0,22,0.00,,,0.00,771.000000,,2013-04-28 18:42:00,
2013-04-28 14:52:00,71.0,30.0,-100.00,WSW,239,3.0,7.0,22,0.00,,,0.00,771.000000,,2013-04-28 18:52:00,
2013-04-28 15:02:00,71.0,30.0,-100.00,WSW,239,3.0,7.0,22,0.00,,,0.00,771.000000,,2013-04-28 19:02:00,
2013-04-28 15:10:00,73.0,30.0,-100.00,NNW,344,2.0,9.0,20,0.00,,,0.00,737.000000,,2013-04-28 19:10:00,
2013-04-28 15:32:00,73.0,30.0,-100.00,NNW,344,2.0,9.0,20,0.00,,,0.00,737.000000,,2013-04-28 19:32:00,
2013-04-28 15:42:00,73.0,30.0,-100.00,NNW,344,2.0,9.0,20,0.00,,,0.00,737.000000,,2013-04-28 19:42:00,
2013-04-28 15:52:00,73.0,30.0,-100.00,NNW,344,2.0,9.0,20,0.00,,,0.00,737.000000,,2013-04-28 19:52:00,
2013-04-28 16:02:00,73.0,30.0,-100.00,NNW,344,2.0,9.0,20,0.00,,,0.00,737.000000,,2013-04-28 20:02:00,
2013-04-28 16:10:00,73.0,28.0,-100.00,WSW,248,3.0,10.0,19,0.00,,,-99.99,633.000000,,2013-04-28 20:10:00,
2013-04-28 16:33:00,73.0,28.0,-100.00,WSW,248,3.0,10.0,19,0.00,,,-99.99,633.000000,,2013-04-28 20:33:00,
2013-04-28 16:42:00,73.0,28.0,-100.00,WSW,248,3.0,10.0,19,0.00,,,-99.99,633.000000,,2013-04-28 20:42:00,
2013-04-28 16:52:00,73.0,28.0,-100.00,WSW,248,3.0,10.0,19,0.00,,,-99.99,633.000000,,2013-04-28 20:52:00,
2013-04-28 17:01:00,73.0,28.0,-100.00,WSW,248,3.0,10.0,19,0.00,,,-99.99,633.000000,,2013-04-28 21:01:00,
2013-04-28 17:10:00,72.0,29.0,-100.00,WSW,238,4.0,10.0,20,0.00,,,0.00,485.000000,,2013-04-28 21:10:00,
2013-04-28 17:43:00,72.0,29.0,-100.00,WSW,238,4.0,10.0,20,0.00,,,0.00,485.000000,,2013-04-28 21:43:00,
2013-04-28 17:53:00,72.0,29.0,-100.00,WSW,238,4.0,10.0,20,0.00,,,0.00,485.000000,,2013-04-28 21:53:00,
2013-04-28 18:03:00,72.0,29.0,-100.00,WSW,238,4.0,10.0,20,0.00,,,0.00,485.000000,,2013-04-28 22:03:00,
2013-04-28 18:10:00,72.0,29.0,-100.00,SE,139,2.0,7.0,20,0.00,,,0.00,315.000000,,2013-04-28 22:10:00,
2013-04-28 18:42:00,72.0,29.0,-100.00,SE,139,2.0,7.0,20,0.00,,,0.00,315.000000,,2013-04-28 22:42:00,
2013-04-28 18:52:00,72.0,29.0,-100.00,SE,139,2.0,7.0,20,0.00,,,0.00,315.000000,,2013-04-28 22:52:00,
2013-04-28 19:02:00,72.0,29.0,-100.00,SE,139,2.0,7.0,20,0.00,,,0.00,315.000000,,2013-04-28 23:02:00,
2013-04-28 19:10:00,67.0,27.0,-100.00,WSW,237,2.0,7.0,22,0.00,,,0.00,128.000000,,2013-04-28 23:10:00,
2013-04-28 19:42:00,67.0,27.0,-100.00,WSW,237,2.0,7.0,22,0.00,,,0.00,128.000000,,2013-04-28 23:42:00,
2013-04-28 19:52:00,67.0,27.0,-100.00,WSW,237,2.0,7.0,22,0.00,,,0.00,128.000000,,2013-04-28 23:52:00,
2013-04-28 20:01:00,67.0,27.0,-100.00,WSW,237,2.0,7.0,22,0.00,,,0.00,128.000000,,2013-04-29 00:01:00,
2013-04-28 21:10:00,53.0,32.0,-100.00,NNE,30,1.0,5.0,45,-99.99,,,0.00,0.000000,,2013-04-29 01:10:00,
2013-04-28 21:32:00,53.0,32.0,-100.00,NNE,30,1.0,5.0,45,-99.99,,,0.00,0.000000,,2013-04-29 01:32:00,
2013-04-28 21:42:00,53.0,32.0,-100.00,NNE,30,1.0,5.0,45,-99.99,,,0.00,0.000000,,2013-04-29 01:42:00,
2013-04-28 21:52:00,53.0,32.0,-100.00,NNE,30,1.0,5.0,45,-99.99,,,0.00,0.000000,,2013-04-29 01:52:00,
2013-04-28 22:02:00,53.0,32.0,-100.00,NNE,30,1.0,5.0,45,-99.99,,,0.00,0.000000,,2013-04-29 02:02:00,
2013-04-28 22:10:00,47.0,35.0,-100.00,East,83,1.0,3.0,64,0.00,,,0.00,0.000000,,2013-04-29 02:10:00,
2013-04-28 22:42:00,47.0,35.0,-100.00,East,83,1.0,3.0,64,0.00,,,0.00,0.000000,,2013-04-29 02:42:00,
2013-04-28 22:52:00,47.0,35.0,-100.00,East,83,1.0,3.0,64,0.00,,,0.00,0.000000,,2013-04-29 02:52:00,
2013-04-28 23:01:00,47.0,35.0,-100.00,East,83,1.0,3.0,64,0.00,,,0.00,0.000000,,2013-04-29 03:01:00,
2013-04-28 23:10:00,42.0,34.0,-100.00,East,96,2.0,2.0,73,0.00,,,0.00,0.000000,,2013-04-29 03:10:00,
2013-04-28 23:33:00,42.0,34.0,-100.00,East,96,2.0,2.0,73,0.00,,,0.00,0.000000,,2013-04-29 03:33:00,
2013-04-28 23:43:00,42.0,34.0,-100.00,East,96,2.0,2.0,73,0.00,,,0.00,0.000000,,2013-04-29 03:43:00,
2013-04-28 23:53:00,42.0,34.0,-100.00,East,96,2.0,2.0,73,0.00,,,0.00,0.000000,,2013-04-29 03:53:00,